createdAt,value
2019-05-30T00:00:09.136Z,71.86
2019-05-30T00:00:56.038Z,72.00
2019-05-30T00:01:56.353Z,71.80
2019-05-30T00:02:56.681Z,71.69
2019-05-30T00:03:56.000Z,71.90
2019-05-30T00:04:56.090Z,71.80
2019-05-30T00:05:56.219Z,72.11
2019-05-30T00:06:56.825Z,72.11
2019-05-30T00:07:56.049Z,72.41
2019-05-30T00:08:54.955Z,72.61
2019-05-30T00:09:54.971Z,72.72
2019-05-30T00:10:54.932Z,72.82
2019-05-30T00:11:54.937Z,73.06
2019-05-30T00:12:54.908Z,72.86
2019-05-30T00:13:54.898Z,73.13
2019-05-30T00:14:54.918Z,73.68
2019-05-30T00:15:54.875Z,73.47
2019-05-30T00:16:54.870Z,73.27
2019-05-30T00:17:54.854Z,73.68
2019-05-30T00:18:54.844Z,73.78
2019-05-30T00:19:55.102Z,74.49
2019-05-30T00:20:54.823Z,74.29
2019-05-30T00:21:54.811Z,74.32
2019-05-30T00:22:54.801Z,74.32
2019-05-30T00:23:55.759Z,74.22
2019-05-30T00:24:55.947Z,74.53
2019-05-30T00:25:55.226Z,74.84
2019-05-30T00:26:56.133Z,74.84
2019-05-30T00:27:55.075Z,75.04
2019-05-30T00:28:54.741Z,75.24
2019-05-30T00:29:55.170Z,74.84
2019-05-30T00:30:54.718Z,75.35
2019-05-30T00:31:55.490Z,75.24
2019-05-30T00:32:54.699Z,75.04
2019-05-30T00:33:55.507Z,74.94
2019-05-30T00:34:55.559Z,74.43
2019-05-30T00:35:55.531Z,74.84
2019-05-30T00:36:55.654Z,75.15
2019-05-30T00:37:55.629Z,74.84
2019-05-30T00:38:55.635Z,75.04
2019-05-30T00:39:55.740Z,74.84
2019-05-30T00:40:55.720Z,75.24
2019-05-30T00:41:55.956Z,74.63
2019-05-30T00:42:55.813Z,74.84
2019-05-30T00:43:55.829Z,74.94
2019-05-30T00:44:55.848Z,74.63
2019-05-30T00:45:55.825Z,74.63
2019-05-30T00:46:54.558Z,74.12
2019-05-30T00:47:54.536Z,74.63
2019-05-30T00:48:54.528Z,74.84
2019-05-30T00:49:54.540Z,74.32
2019-05-30T00:50:54.502Z,74.73
2019-05-30T00:51:54.491Z,74.22
2019-05-30T00:52:54.484Z,74.73
2019-05-30T00:53:54.470Z,75.08
2019-05-30T00:54:54.484Z,75.24
2019-05-30T00:55:54.453Z,75.18
2019-05-30T00:56:54.455Z,75.18
2019-05-30T00:57:54.429Z,74.66
2019-05-30T00:58:54.418Z,75.04
2019-05-30T00:59:54.446Z,74.63
2019-05-30T01:00:54.400Z,74.73
2019-05-30T01:01:54.386Z,74.15
2019-05-30T01:02:54.382Z,74.43
2019-05-30T01:03:54.363Z,74.32
2019-05-30T01:04:54.380Z,74.32
2019-05-30T01:05:54.361Z,74.32
2019-05-30T01:06:54.331Z,74.22
2019-05-30T01:07:54.323Z,74.53
2019-05-30T01:08:54.309Z,73.71
2019-05-30T01:09:54.324Z,73.81
2019-05-30T01:10:54.286Z,73.71
2019-05-30T01:11:54.281Z,73.40
2019-05-30T01:12:54.267Z,73.40
2019-05-30T01:13:54.264Z,73.19
2019-05-30T01:14:54.269Z,73.30
2019-05-30T01:15:54.238Z,73.30
2019-05-30T01:16:54.231Z,73.19
2019-05-30T01:17:54.220Z,73.16
2019-05-30T01:18:54.201Z,72.96
2019-05-30T01:19:54.221Z,73.57
2019-05-30T01:20:54.187Z,73.40
2019-05-30T01:21:54.177Z,73.06
2019-05-30T01:22:54.164Z,73.27
2019-05-30T01:23:54.188Z,72.61
2019-05-30T01:24:54.170Z,72.65
2019-05-30T01:25:54.132Z,73.33
2019-05-30T01:26:54.123Z,72.82
2019-05-30T01:27:54.106Z,72.41
2019-05-30T01:28:54.097Z,72.00
2019-05-30T01:29:54.116Z,72.11
2019-05-30T01:31:01.441Z,72.41
2019-05-30T01:31:55.066Z,72.72
2019-05-30T01:32:54.061Z,72.31
2019-05-30T01:33:54.044Z,72.52
2019-05-30T01:34:54.072Z,73.44
2019-05-30T01:35:54.025Z,72.28
2019-05-30T01:36:54.014Z,72.58
2019-05-30T01:37:54.008Z,72.89
2019-05-30T01:38:53.991Z,72.48
2019-05-30T01:39:54.007Z,72.45
2019-05-30T01:40:53.982Z,71.97
2019-05-30T01:41:53.963Z,71.73
2019-05-30T01:42:53.949Z,72.14
2019-05-30T01:43:53.941Z,72.34
2019-05-30T01:44:53.952Z,72.24
2019-05-30T01:45:53.924Z,72.55
2019-05-30T01:46:53.910Z,72.55
2019-05-30T01:47:53.894Z,71.97
2019-05-30T01:48:53.886Z,71.94
2019-05-30T01:49:53.900Z,72.45
2019-05-30T01:50:53.862Z,72.86
2019-05-30T01:51:53.857Z,73.30
2019-05-30T01:52:53.846Z,72.45
2019-05-30T01:53:53.829Z,73.50
2019-05-30T01:54:53.857Z,72.96
2019-05-30T01:55:53.813Z,72.86
2019-05-30T01:56:53.801Z,72.55
2019-05-30T01:57:53.789Z,72.96
2019-05-30T01:58:53.781Z,72.86
2019-05-30T01:59:53.797Z,72.24
2019-05-30T02:00:53.763Z,73.06
2019-05-30T02:01:53.747Z,72.72
2019-05-30T02:02:53.734Z,72.96
2019-05-30T02:03:53.729Z,72.92
2019-05-30T02:04:53.743Z,73.36
2019-05-30T02:05:53.723Z,73.36
2019-05-30T02:06:53.700Z,73.06
2019-05-30T02:07:53.681Z,73.44
2019-05-30T02:08:53.672Z,72.72
2019-05-30T02:09:53.693Z,72.52
2019-05-30T02:10:53.654Z,72.82
2019-05-30T02:11:53.640Z,73.03
2019-05-30T02:12:53.629Z,72.72
2019-05-30T02:13:53.619Z,72.41
2019-05-30T02:14:53.636Z,72.07
2019-05-30T02:15:53.590Z,72.28
2019-05-30T02:16:53.629Z,71.87
2019-05-30T02:17:53.574Z,71.66
2019-05-30T02:18:53.563Z,71.83
2019-05-30T02:19:53.592Z,71.22
2019-05-30T02:20:53.546Z,71.53
2019-05-30T02:21:53.536Z,71.33
2019-05-30T02:22:53.524Z,71.33
2019-05-30T02:23:53.513Z,71.42
2019-05-30T02:24:53.531Z,71.53
2019-05-30T02:25:53.489Z,71.50
2019-05-30T02:26:53.477Z,70.98
2019-05-30T02:27:53.470Z,71.39
2019-05-30T02:28:53.461Z,71.09
2019-05-30T02:29:53.474Z,70.98
2019-05-30T02:30:53.442Z,71.39
2019-05-30T02:31:53.438Z,71.09
2019-05-30T02:32:53.416Z,71.09
2019-05-30T02:33:53.415Z,72.00
2019-05-30T02:34:53.419Z,71.29
2019-05-30T02:35:53.387Z,71.80
2019-05-30T02:36:53.379Z,71.09
2019-05-30T02:37:53.364Z,71.70
2019-05-30T02:38:53.353Z,72.14
2019-05-30T02:39:53.356Z,72.04
2019-05-30T02:40:53.354Z,71.80
2019-05-30T02:41:53.318Z,71.59
2019-05-30T02:42:53.311Z,71.59
2019-05-30T02:43:53.299Z,71.19
2019-05-30T02:44:53.291Z,71.50
2019-05-30T02:45:53.303Z,71.39
2019-05-30T02:46:53.271Z,71.59
2019-05-30T02:47:53.255Z,72.00
2019-05-30T02:48:58.761Z,72.34
2019-05-30T02:49:54.238Z,73.06
2019-05-30T02:50:53.248Z,72.89
2019-05-30T02:51:53.214Z,73.10
2019-05-30T02:52:53.202Z,73.16
2019-05-30T02:53:53.190Z,73.91
2019-05-30T02:54:53.178Z,73.40
2019-05-30T02:55:53.199Z,74.11
2019-05-30T02:56:53.162Z,73.91
2019-05-30T02:57:53.148Z,73.85
2019-05-30T02:58:53.138Z,74.26
2019-05-30T02:59:53.132Z,74.63
2019-05-30T03:00:53.145Z,74.22
2019-05-30T03:02:00.990Z,74.11
2019-05-30T03:02:54.096Z,74.32
2019-05-30T03:03:53.086Z,74.63
2019-05-30T03:04:53.101Z,74.32
2019-05-30T03:05:53.096Z,74.87
2019-05-30T03:06:53.052Z,74.84
2019-05-30T03:07:53.044Z,74.93
2019-05-30T03:08:53.035Z,74.63
2019-05-30T03:09:53.018Z,74.63
2019-05-30T03:10:53.040Z,74.73
2019-05-30T03:11:52.995Z,74.84
2019-05-30T03:12:52.987Z,74.73
2019-05-30T03:13:53.000Z,75.04
2019-05-30T03:14:52.964Z,74.69
2019-05-30T03:15:53.015Z,74.59
2019-05-30T03:16:52.947Z,74.69
2019-05-30T03:17:52.934Z,74.93
2019-05-30T03:18:52.927Z,74.59
2019-05-30T03:19:52.925Z,74.80
2019-05-30T03:20:52.922Z,75.55
2019-05-30T03:21:52.892Z,75.31
2019-05-30T03:22:52.880Z,75.21
2019-05-30T03:23:52.877Z,75.34
2019-05-30T03:24:52.863Z,75.14
2019-05-30T03:25:52.875Z,75.00
2019-05-30T03:26:52.847Z,74.80
2019-05-30T03:27:52.830Z,74.69
2019-05-30T03:28:53.618Z,74.90
2019-05-30T03:29:52.812Z,74.90
2019-05-30T03:30:52.834Z,75.07
2019-05-30T03:31:52.785Z,74.46
2019-05-30T03:33:06.828Z,74.56
2019-05-30T03:33:53.762Z,74.66
2019-05-30T03:34:52.762Z,74.25
2019-05-30T03:35:52.774Z,74.76
2019-05-30T03:36:52.733Z,74.76
2019-05-30T03:37:52.724Z,74.63
2019-05-30T03:38:52.712Z,74.32
2019-05-30T03:39:52.703Z,74.32
2019-05-30T03:40:52.714Z,74.22
2019-05-30T03:41:52.679Z,74.11
2019-05-30T03:42:52.668Z,74.42
2019-05-30T03:43:52.654Z,73.40
2019-05-30T03:44:52.655Z,73.57
2019-05-30T03:45:52.669Z,73.57
2019-05-30T03:46:52.628Z,73.57
2019-05-30T03:47:52.611Z,73.36
2019-05-30T03:48:52.614Z,73.06
2019-05-30T03:49:52.591Z,73.06
2019-05-30T03:50:52.614Z,73.16
2019-05-30T03:51:52.575Z,73.27
2019-05-30T03:52:52.654Z,73.27
2019-05-30T03:53:52.555Z,73.47
2019-05-30T03:54:52.542Z,73.03
2019-05-30T03:55:52.559Z,73.16
2019-05-30T03:56:52.519Z,73.13
2019-05-30T03:57:52.509Z,72.72
2019-05-30T03:58:52.498Z,73.23
2019-05-30T03:59:52.497Z,72.72
2019-05-30T04:00:52.498Z,73.33
2019-05-30T04:01:52.467Z,73.23
2019-05-30T04:02:58.296Z,73.33
2019-05-30T04:03:53.443Z,72.52
2019-05-30T04:04:52.439Z,72.92
2019-05-30T04:05:52.466Z,73.43
2019-05-30T04:06:52.415Z,73.23
2019-05-30T04:07:52.407Z,73.03
2019-05-30T04:08:52.393Z,73.13
2019-05-30T04:09:52.382Z,73.03
2019-05-30T04:10:52.375Z,72.62
2019-05-30T04:11:52.381Z,73.03
2019-05-30T04:12:52.350Z,72.52
2019-05-30T04:13:52.351Z,73.13
2019-05-30T04:14:52.339Z,72.17
2019-05-30T04:15:52.325Z,72.99
2019-05-30T04:16:52.346Z,73.19
2019-05-30T04:17:52.303Z,72.58
2019-05-30T04:18:52.290Z,72.79
2019-05-30T04:19:52.285Z,72.79
2019-05-30T04:20:52.286Z,72.28
2019-05-30T04:21:52.284Z,72.69
2019-05-30T04:22:52.243Z,72.48
2019-05-30T04:23:52.228Z,72.48
2019-05-30T04:24:52.223Z,72.14
2019-05-30T04:25:52.226Z,72.86
2019-05-30T04:26:52.228Z,71.43
2019-05-30T04:27:52.190Z,72.45
2019-05-30T04:28:52.186Z,71.53
2019-05-30T04:29:52.167Z,71.63
2019-05-30T04:30:52.160Z,71.60
2019-05-30T04:31:52.177Z,70.99
2019-05-30T04:32:52.136Z,71.09
2019-05-30T04:33:52.127Z,70.99
2019-05-30T04:34:52.118Z,71.70
2019-05-30T04:35:52.104Z,71.50
2019-05-30T04:36:53.589Z,71.60
2019-05-30T04:37:52.084Z,71.26
2019-05-30T04:38:52.082Z,70.86
2019-05-30T04:39:52.069Z,70.45
2019-05-30T04:40:52.054Z,71.06
2019-05-30T04:41:52.068Z,70.01
2019-05-30T04:42:52.046Z,70.21
2019-05-30T04:43:52.019Z,70.41
2019-05-30T04:44:52.016Z,70.10
2019-05-30T04:45:52.002Z,70.18
2019-05-30T04:46:52.011Z,70.07
2019-05-30T04:47:51.975Z,69.67
2019-05-30T04:48:51.980Z,68.85
2019-05-30T04:49:51.959Z,68.96
2019-05-30T04:50:51.948Z,69.16
2019-05-30T04:51:51.957Z,69.16
2019-05-30T04:52:51.933Z,69.64
2019-05-30T04:53:51.920Z,69.26
2019-05-30T04:54:51.907Z,69.46
2019-05-30T04:55:51.892Z,69.16
2019-05-30T04:56:51.913Z,69.16
2019-05-30T04:57:51.874Z,69.43
2019-05-30T04:58:51.982Z,69.13
2019-05-30T04:59:51.853Z,68.92
2019-05-30T05:00:51.839Z,68.72
2019-05-30T05:01:51.921Z,68.69
2019-05-30T05:02:51.818Z,68.59
2019-05-30T05:03:51.814Z,68.72
2019-05-30T05:04:51.800Z,67.80
2019-05-30T05:05:51.797Z,69.02
2019-05-30T05:06:51.801Z,68.82
2019-05-30T05:07:51.773Z,68.99
2019-05-30T05:08:51.761Z,69.20
2019-05-30T05:09:51.765Z,69.30
2019-05-30T05:10:51.740Z,69.40
2019-05-30T05:11:51.751Z,69.20
2019-05-30T05:12:51.717Z,69.20
2019-05-30T05:13:51.710Z,69.09
2019-05-30T05:14:51.691Z,69.37
2019-05-30T05:15:51.681Z,70.01
2019-05-30T05:16:51.698Z,69.91
2019-05-30T05:17:51.663Z,69.20
2019-05-30T05:18:51.647Z,69.09
2019-05-30T05:19:51.635Z,69.57
2019-05-30T05:20:51.630Z,69.87
2019-05-30T05:21:51.638Z,69.47
2019-05-30T05:22:51.608Z,68.66
2019-05-30T05:23:51.594Z,68.73
2019-05-30T05:24:51.586Z,68.62
2019-05-30T05:26:00.278Z,68.42
2019-05-30T05:26:52.586Z,68.93
2019-05-30T05:27:51.566Z,68.93
2019-05-30T05:28:51.549Z,68.01
2019-05-30T05:29:51.536Z,67.38
2019-05-30T05:30:51.527Z,69.20
2019-05-30T05:31:51.510Z,69.13
2019-05-30T05:32:51.640Z,68.59
2019-05-30T05:33:56.893Z,67.61
2019-05-30T05:34:52.476Z,68.32
2019-05-30T05:35:51.466Z,70.04
2019-05-30T05:36:51.457Z,69.67
2019-05-30T05:37:51.470Z,70.08
2019-05-30T05:38:51.437Z,68.62
2019-05-30T05:39:51.421Z,69.54
2019-05-30T05:40:51.416Z,70.15
2019-05-30T05:41:51.397Z,70.89
2019-05-30T05:42:51.419Z,72.96
2019-05-30T05:43:51.379Z,73.06
2019-05-30T05:44:51.371Z,72.85
2019-05-30T05:45:51.388Z,74.48
2019-05-30T05:46:51.394Z,72.85
2019-05-30T05:47:51.372Z,73.46
2019-05-30T05:48:51.327Z,73.16
2019-05-30T05:49:51.323Z,73.36
2019-05-30T05:50:51.302Z,73.06
2019-05-30T05:51:51.293Z,72.96
2019-05-30T05:52:51.311Z,73.36
2019-05-30T05:53:51.272Z,72.65
2019-05-30T05:54:51.265Z,72.31
2019-05-30T05:55:51.253Z,72.41
2019-05-30T05:56:51.241Z,72.01
2019-05-30T05:57:51.253Z,70.99
2019-05-30T05:58:51.223Z,70.96
2019-05-30T05:59:51.212Z,70.99
2019-05-30T06:00:51.203Z,70.25
2019-05-30T06:01:51.194Z,70.15
2019-05-30T06:02:51.231Z,70.15
2019-05-30T06:03:51.162Z,69.81
2019-05-30T06:04:51.157Z,69.13
2019-05-30T06:05:53.418Z,69.00
2019-05-30T06:06:51.140Z,68.90
2019-05-30T06:07:51.128Z,67.88
2019-05-30T06:08:51.158Z,68.96
2019-05-30T06:09:51.102Z,68.56
2019-05-30T06:10:51.089Z,67.55
2019-05-30T06:11:51.088Z,67.03
2019-05-30T06:12:51.101Z,67.78
2019-05-30T06:13:51.094Z,68.15
2019-05-30T06:14:51.050Z,67.75
2019-05-30T06:15:51.038Z,67.51
2019-05-30T06:16:51.028Z,67.31
2019-05-30T06:17:51.017Z,67.61
2019-05-30T06:18:51.034Z,67.08
2019-05-30T06:19:50.999Z,66.77
2019-05-30T06:20:50.987Z,67.08
2019-05-30T06:21:54.150Z,66.88
2019-05-30T06:22:50.966Z,66.88
2019-05-30T06:23:51.079Z,66.37
2019-05-30T06:24:50.952Z,67.05
2019-05-30T06:25:50.939Z,66.77
2019-05-30T06:26:50.927Z,66.88
2019-05-30T06:27:50.918Z,67.18
2019-05-30T06:28:50.925Z,66.54
2019-05-30T06:29:50.897Z,66.24
2019-05-30T06:30:50.890Z,66.13
2019-05-30T06:31:50.876Z,65.83
2019-05-30T06:32:50.863Z,65.73
2019-05-30T06:33:50.877Z,65.93
2019-05-30T06:34:50.839Z,67.01
2019-05-30T06:35:50.832Z,66.10
2019-05-30T06:36:50.821Z,65.73
2019-05-30T06:37:50.822Z,65.93
2019-05-30T06:38:50.827Z,66.54
2019-05-30T06:39:50.806Z,66.50
2019-05-30T06:40:50.799Z,66.00
2019-05-30T06:41:50.771Z,66.03
2019-05-30T06:42:50.766Z,66.74
2019-05-30T06:43:50.789Z,66.50
2019-05-30T06:44:50.742Z,65.19
2019-05-30T06:45:50.729Z,65.47
2019-05-30T06:46:50.763Z,66.61
2019-05-30T06:47:50.706Z,66.78
2019-05-30T06:48:50.720Z,65.97
2019-05-30T06:49:50.729Z,65.47
2019-05-30T06:50:50.679Z,66.38
2019-05-30T06:51:50.698Z,65.90
2019-05-30T06:52:50.753Z,66.38
2019-05-30T06:53:50.681Z,65.06
2019-05-30T06:54:50.631Z,65.67
2019-05-30T06:55:50.621Z,66.07
2019-05-30T06:56:50.633Z,66.07
2019-05-30T06:57:50.762Z,66.07
2019-05-30T06:58:50.762Z,65.47
2019-05-30T06:59:50.586Z,66.58
2019-05-30T07:00:50.615Z,65.94
2019-05-30T07:01:52.210Z,65.23
2019-05-30T07:02:50.750Z,65.47
2019-05-30T07:03:50.706Z,65.06
2019-05-30T07:04:52.472Z,65.13
2019-05-30T07:05:51.134Z,65.47
2019-05-30T07:06:50.911Z,65.94
2019-05-30T07:07:50.683Z,65.87
2019-05-30T07:08:50.514Z,65.94
2019-05-30T07:09:50.469Z,66.24
2019-05-30T07:10:50.453Z,66.64
2019-05-30T07:11:50.446Z,68.67
2019-05-30T07:12:50.434Z,68.74
2019-05-30T07:13:50.455Z,69.55
2019-05-30T07:14:50.412Z,69.68
2019-05-30T07:15:50.404Z,71.33
2019-05-30T07:16:50.393Z,74.16
2019-05-30T07:17:50.385Z,74.40
2019-05-30T07:18:50.412Z,73.39
2019-05-30T07:19:50.369Z,74.71
2019-05-30T07:20:50.350Z,76.06
2019-05-30T07:21:50.346Z,74.48
2019-05-30T07:22:50.329Z,75.85
2019-05-30T07:23:50.341Z,76.87
2019-05-30T07:24:50.310Z,76.56
2019-05-30T07:25:50.294Z,74.74
2019-05-30T07:26:50.285Z,75.96
2019-05-30T07:27:50.275Z,76.06
2019-05-30T07:28:50.305Z,74.33
2019-05-30T07:29:50.254Z,74.74
2019-05-30T07:30:50.245Z,74.64
2019-05-30T07:31:50.231Z,74.20
2019-05-30T07:32:50.218Z,74.00
2019-05-30T07:33:50.230Z,72.99
2019-05-30T07:35:03.414Z,74.20
2019-05-30T07:35:51.181Z,73.96
2019-05-30T07:36:50.178Z,72.24
2019-05-30T07:37:50.173Z,72.11
2019-05-30T07:38:50.177Z,70.89
2019-05-30T07:39:50.143Z,70.59
2019-05-30T07:40:50.130Z,70.76
2019-05-30T07:42:05.180Z,70.56
2019-05-30T07:42:51.111Z,69.34
2019-05-30T07:43:50.122Z,69.62
2019-05-30T07:44:50.098Z,67.19
2019-05-30T07:45:57.869Z,69.58
2019-05-30T07:46:51.068Z,68.63
2019-05-30T07:47:50.071Z,67.09
2019-05-30T07:48:50.070Z,66.69
2019-05-30T07:49:50.036Z,67.29
2019-05-30T07:50:50.027Z,68.71
2019-05-30T07:51:50.018Z,67.49
2019-05-30T07:52:50.008Z,66.78
2019-05-30T07:53:50.032Z,67.49
2019-05-30T07:54:49.984Z,67.09
2019-05-30T07:55:49.975Z,67.09
2019-05-30T07:56:49.965Z,66.99
2019-05-30T07:57:49.939Z,66.25
2019-05-30T07:58:49.967Z,66.55
2019-05-30T07:59:49.935Z,66.69
2019-05-30T08:00:49.921Z,65.17
2019-05-30T08:01:49.913Z,67.09
2019-05-30T08:02:49.890Z,66.21
2019-05-30T08:03:49.913Z,66.18
2019-05-30T08:04:49.879Z,67.29
2019-05-30T08:05:49.897Z,66.18
2019-05-30T08:06:49.863Z,64.70
2019-05-30T08:07:49.850Z,65.88
2019-05-30T08:08:49.861Z,65.10
2019-05-30T08:09:49.826Z,65.10
2019-05-30T08:10:49.816Z,65.70
2019-05-30T08:11:49.809Z,65.37
2019-05-30T08:12:49.795Z,66.41
2019-05-30T08:13:49.803Z,64.90
2019-05-30T08:14:49.782Z,65.70
2019-05-30T08:15:49.766Z,66.41
2019-05-30T08:16:49.758Z,65.40
2019-05-30T08:17:49.752Z,65.20
2019-05-30T08:18:49.760Z,65.00
2019-05-30T08:19:49.719Z,66.01
2019-05-30T08:20:49.713Z,66.01
2019-05-30T08:21:49.705Z,65.78
2019-05-30T08:22:49.692Z,65.64
2019-05-30T08:23:49.834Z,65.31
2019-05-30T08:24:49.668Z,64.81
2019-05-30T08:25:49.737Z,63.09
2019-05-30T08:26:49.648Z,64.10
2019-05-30T08:27:49.638Z,63.67
2019-05-30T08:28:49.654Z,64.07
2019-05-30T08:29:49.617Z,63.64
2019-05-30T08:30:49.602Z,64.11
2019-05-30T08:31:49.608Z,62.77
2019-05-30T08:32:49.592Z,62.26
2019-05-30T08:33:49.620Z,62.06
2019-05-30T08:34:49.563Z,60.22
2019-05-30T08:35:50.468Z,60.60
2019-05-30T08:36:49.556Z,59.26
2019-05-30T08:37:49.535Z,60.03
2019-05-30T08:38:49.530Z,59.43
2019-05-30T08:39:49.539Z,58.25
2019-05-30T08:40:49.498Z,58.53
2019-05-30T08:41:49.487Z,58.73
2019-05-30T08:42:49.487Z,59.23
2019-05-30T08:43:49.467Z,60.09
2019-05-30T08:44:49.489Z,60.09
2019-05-30T08:45:49.446Z,60.83
2019-05-30T08:46:49.555Z,60.19
2019-05-30T08:47:49.427Z,60.03
2019-05-30T08:48:49.419Z,58.67
2019-05-30T08:49:49.437Z,58.07
2019-05-30T08:50:49.401Z,57.08
2019-05-30T08:51:49.393Z,56.35
2019-05-30T08:52:49.374Z,54.39
2019-05-30T08:53:49.366Z,53.74
2019-05-30T08:54:49.383Z,52.59
2019-05-30T08:55:49.350Z,52.57
2019-05-30T08:56:49.338Z,52.02
2019-05-30T08:57:49.322Z,50.59
2019-05-30T08:58:49.333Z,51.82
2019-05-30T08:59:49.331Z,52.07
2019-05-30T09:00:49.293Z,53.47
2019-05-30T09:01:52.898Z,54.45
2019-05-30T09:02:49.278Z,55.85
2019-05-30T09:03:49.264Z,54.60
2019-05-30T09:04:49.279Z,54.39
2019-05-30T09:06:02.574Z,53.82
2019-05-30T09:06:50.224Z,54.52
2019-05-30T09:07:49.220Z,55.60
2019-05-30T09:08:49.211Z,57.21
2019-05-30T09:09:49.225Z,57.48
2019-05-30T09:10:49.191Z,56.68
2019-05-30T09:11:49.181Z,56.18
2019-05-30T09:12:49.769Z,56.15
2019-05-30T09:13:49.165Z,56.15
2019-05-30T09:14:49.175Z,57.30
2019-05-30T09:15:49.138Z,54.57
2019-05-30T09:16:49.584Z,54.12
2019-05-30T09:17:49.120Z,56.48
2019-05-30T09:18:49.112Z,57.21
2019-05-30T09:19:49.126Z,58.00
2019-05-30T09:20:49.092Z,59.50
2019-05-30T09:21:49.077Z,58.40
2019-05-30T09:22:49.069Z,57.46
2019-05-30T09:23:49.137Z,58.07
2019-05-30T09:24:49.080Z,58.84
2019-05-30T09:25:49.461Z,57.54
2019-05-30T09:26:50.436Z,56.18
2019-05-30T09:27:49.015Z,55.25
2019-05-30T09:28:49.008Z,55.37
2019-05-30T09:29:49.026Z,54.39
2019-05-30T09:30:48.987Z,54.95
2019-05-30T09:31:48.979Z,57.28
2019-05-30T09:32:48.999Z,56.71
2019-05-30T09:33:48.961Z,56.51
2019-05-30T09:34:48.973Z,57.68
2019-05-30T09:35:49.145Z,56.85
2019-05-30T09:36:49.202Z,54.93
2019-05-30T09:37:49.501Z,56.10
2019-05-30T09:38:49.743Z,56.20
2019-05-30T09:39:49.459Z,56.13
2019-05-30T09:40:49.640Z,56.50
2019-05-30T09:41:49.854Z,55.02
2019-05-30T09:42:50.230Z,54.27
2019-05-30T09:43:48.854Z,53.04
2019-05-30T09:44:50.947Z,53.37
2019-05-30T09:45:48.832Z,54.05
2019-05-30T09:46:48.820Z,57.15
2019-05-30T09:47:49.296Z,56.63
2019-05-30T09:48:48.798Z,55.90
2019-05-30T09:49:48.817Z,55.20
2019-05-30T09:50:48.847Z,56.23
2019-05-30T09:51:49.015Z,56.45
2019-05-30T09:52:49.403Z,58.29
2019-05-30T09:53:48.746Z,59.49
2019-05-30T09:54:48.773Z,59.23
2019-05-30T09:55:48.727Z,58.26
2019-05-30T09:56:48.719Z,59.82
2019-05-30T09:57:49.638Z,59.92
2019-05-30T09:58:49.721Z,59.59
2019-05-30T09:59:50.396Z,59.42
2019-05-30T10:00:50.328Z,61.29
2019-05-30T10:01:50.042Z,62.39
2019-05-30T10:02:48.860Z,61.71
2019-05-30T10:03:48.647Z,61.65
2019-05-30T10:04:48.664Z,61.74
2019-05-30T10:05:48.753Z,62.22
2019-05-30T10:06:48.616Z,62.65
2019-05-30T10:07:49.236Z,63.45
2019-05-30T10:08:49.600Z,62.85
2019-05-30T10:09:48.910Z,63.12
2019-05-30T10:10:49.564Z,62.92
2019-05-30T10:11:49.337Z,62.22
2019-05-30T10:12:48.661Z,60.96
2019-05-30T10:13:50.773Z,61.99
2019-05-30T10:14:48.718Z,62.72
2019-05-30T10:15:48.616Z,62.29
2019-05-30T10:16:54.463Z,63.05
2019-05-30T10:17:52.067Z,64.99
2019-05-30T10:18:49.112Z,64.49
2019-05-30T10:19:48.805Z,64.36
2019-05-30T10:20:49.438Z,64.06
2019-05-30T10:21:49.007Z,64.13
2019-05-30T10:22:49.014Z,63.53
2019-05-30T10:23:49.470Z,63.59
2019-05-30T10:24:49.099Z,61.66
2019-05-30T10:25:49.501Z,62.49
2019-05-30T10:26:49.011Z,63.42
2019-05-30T10:27:50.287Z,63.09
2019-05-30T10:28:49.531Z,64.00
2019-05-30T10:29:49.461Z,62.22
2019-05-30T10:30:53.884Z,63.39
2019-05-30T10:31:50.543Z,62.79
2019-05-30T10:32:49.096Z,62.86
2019-05-30T10:33:49.371Z,61.96
2019-05-30T10:34:49.489Z,61.50
2019-05-30T10:35:49.161Z,60.06
2019-05-30T10:36:49.290Z,59.83
2019-05-30T10:37:49.121Z,59.26
2019-05-30T10:38:49.132Z,60.03
2019-05-30T10:39:49.208Z,61.34
2019-05-30T10:40:48.760Z,60.03
2019-05-30T10:41:49.017Z,60.10
2019-05-30T10:42:49.597Z,61.52
2019-05-30T10:43:49.089Z,61.43
2019-05-30T10:44:49.399Z,61.43
2019-05-30T10:45:49.385Z,62.83
2019-05-30T10:46:48.981Z,61.27
2019-05-30T10:47:49.406Z,59.86
2019-05-30T10:48:49.126Z,59.96
2019-05-30T10:49:49.672Z,60.16
2019-05-30T10:50:48.557Z,60.14
2019-05-30T10:51:49.479Z,59.64
2019-05-30T10:52:49.287Z,58.00
2019-05-30T10:53:49.056Z,60.06
2019-05-30T10:54:49.318Z,59.44
2019-05-30T10:55:48.258Z,59.44
2019-05-30T10:56:48.761Z,59.33
2019-05-30T10:57:48.691Z,58.18
2019-05-30T10:58:48.351Z,57.72
2019-05-30T10:59:48.940Z,58.02
2019-05-30T11:00:48.945Z,57.55
2019-05-30T11:01:48.426Z,58.07
2019-05-30T11:02:49.361Z,59.15
2019-05-30T11:03:48.780Z,58.00
2019-05-30T11:04:48.985Z,60.16
2019-05-30T11:05:48.696Z,60.53
2019-05-30T11:07:05.207Z,60.66
2019-05-30T11:08:00.787Z,61.14
2019-05-30T11:08:49.138Z,61.17
2019-05-30T11:09:48.671Z,61.17
2019-05-30T11:10:48.483Z,60.39
2019-05-30T11:11:48.622Z,62.33
2019-05-30T11:12:49.296Z,62.06
2019-05-30T11:13:48.897Z,64.00
2019-05-30T11:14:48.615Z,64.30
2019-05-30T11:15:48.718Z,64.67
2019-05-30T11:16:48.887Z,63.39
2019-05-30T11:17:49.004Z,64.00
2019-05-30T11:18:49.369Z,64.53
2019-05-30T11:19:47.854Z,64.53
2019-05-30T11:20:47.970Z,64.00
2019-05-30T11:21:47.903Z,63.53
2019-05-30T11:22:47.924Z,63.82
2019-05-30T11:23:47.961Z,63.62
2019-05-30T11:24:48.196Z,64.53
2019-05-30T11:25:48.566Z,63.62
2019-05-30T11:26:50.440Z,64.83
2019-05-30T11:27:48.589Z,63.79
2019-05-30T11:28:48.537Z,64.70
2019-05-30T11:29:48.684Z,64.30
2019-05-30T11:30:48.618Z,63.76
2019-05-30T11:31:48.758Z,64.70
2019-05-30T11:32:48.940Z,64.03
2019-05-30T11:33:48.825Z,64.43
2019-05-30T11:34:49.032Z,64.83
2019-05-30T11:35:48.881Z,64.23
2019-05-30T11:36:48.955Z,63.82
2019-05-30T11:37:48.933Z,64.10
2019-05-30T11:38:49.030Z,63.76
2019-05-30T11:39:47.644Z,63.26
2019-05-30T11:40:47.654Z,62.76
2019-05-30T11:41:47.619Z,63.06
2019-05-30T11:42:47.603Z,63.06
2019-05-30T11:43:47.600Z,63.56
2019-05-30T11:44:47.585Z,62.96
2019-05-30T11:45:47.602Z,63.26
2019-05-30T11:46:47.570Z,62.33
2019-05-30T11:47:47.556Z,61.90
2019-05-30T11:48:47.549Z,62.70
2019-05-30T11:49:47.545Z,62.03
2019-05-30T11:50:47.547Z,62.93
2019-05-30T11:51:47.519Z,62.80
2019-05-30T11:52:47.503Z,62.73
2019-05-30T11:53:47.495Z,62.76
2019-05-30T11:54:47.482Z,63.53
2019-05-30T11:55:47.510Z,64.70
2019-05-30T11:56:47.465Z,64.60
2019-05-30T11:57:47.465Z,64.10
2019-05-30T11:58:47.443Z,63.56
2019-05-30T11:59:47.431Z,64.46
2019-05-30T12:00:47.466Z,64.56
2019-05-30T12:01:47.416Z,64.96
2019-05-30T12:02:47.404Z,65.67
2019-05-30T12:03:47.403Z,64.66
2019-05-30T12:04:47.381Z,64.63
2019-05-30T12:05:47.371Z,64.33
2019-05-30T12:06:47.392Z,63.82
2019-05-30T12:07:47.361Z,64.79
2019-05-30T12:08:47.348Z,65.39
2019-05-30T12:09:47.334Z,65.70
2019-05-30T12:10:47.318Z,64.99
2019-05-30T12:11:47.355Z,66.00
2019-05-30T12:12:47.299Z,66.00
2019-05-30T12:13:47.289Z,64.79
2019-05-30T12:14:47.283Z,65.09
2019-05-30T12:15:47.276Z,66.50
2019-05-30T12:16:47.287Z,65.50
2019-05-30T12:17:47.245Z,65.77
2019-05-30T12:18:47.237Z,65.67
2019-05-30T12:19:47.227Z,64.93
2019-05-30T12:20:47.214Z,64.73
2019-05-30T12:21:47.234Z,64.53
2019-05-30T12:22:47.204Z,64.63
2019-05-30T12:23:47.187Z,65.97
2019-05-30T12:24:47.181Z,65.56
2019-05-30T12:25:47.162Z,64.96
2019-05-30T12:26:47.176Z,65.53
2019-05-30T12:27:47.145Z,64.83
2019-05-30T12:28:47.130Z,64.93
2019-05-30T12:29:47.124Z,65.23
2019-05-30T12:30:56.620Z,65.44
2019-05-30T12:31:48.127Z,64.56
2019-05-30T12:32:47.090Z,64.66
2019-05-30T12:33:47.080Z,64.83
2019-05-30T12:34:47.072Z,65.03
2019-05-30T12:35:47.064Z,64.80
2019-05-30T12:36:47.071Z,65.50
2019-05-30T12:37:54.877Z,63.96
2019-05-30T12:38:48.022Z,63.76
2019-05-30T12:39:47.021Z,64.17
2019-05-30T12:40:47.007Z,63.96
2019-05-30T12:41:47.022Z,63.56
2019-05-30T12:42:46.985Z,64.14
2019-05-30T12:43:46.976Z,64.61
2019-05-30T12:44:46.964Z,62.40
2019-05-30T12:45:46.952Z,61.93
2019-05-30T12:46:46.972Z,62.73
2019-05-30T12:47:46.936Z,64.14
2019-05-30T12:48:46.919Z,63.23
2019-05-30T12:49:46.914Z,62.86
2019-05-30T12:50:46.902Z,62.33
2019-05-30T12:51:46.915Z,63.53